Time;durP1;ratioP1;P1;durP2;ratioP2;P2;SDS_P1;SDS_P2;PMS_P1;PMS_P2;Temp;Humidity;BMP_temperature;BMP_pressure;BME280_temperature;BME280_humidity;BME280_pressure;Samples;Min_cycle;Max_cycle;Signal;HPM_P1;HPM_P2
2022/01/03 00:05:48;;;;;;;9.20;6.40;;;;;;;8.44;82.28;97894.14;418207;1315;97553;-40
2022/01/03 00:26:02;;;;;;;13.50;6.90;;;;;;;8.35;82.32;97880.00;418858;1314;108477;-41
2022/01/03 00:36:09;;;;;;;15.40;7.50;;;;;;;8.26;82.11;97876.05;418935;1313;97791;-40
2022/01/03 00:46:18;;;;;;;10.70;6.10;;;;;;;8.22;82.11;97872.02;418903;1313;108935;-41
2022/01/03 00:56:30;;;;;;;11.00;6.10;;;;;;;8.21;82.12;97857.72;419040;1314;98240;-40
2022/01/03 01:06:39;;;;;;;9.30;6.30;;;;;;;8.18;81.94;97860.66;419102;1314;111433;-42
2022/01/03 01:16:48;;;;;;;11.50;7.00;;;;;;;8.10;82.07;97864.04;418457;1314;108943;-41
2022/01/03 01:37:23;;;;;;;7.40;5.20;;;;;;;7.94;82.01;97848.85;418926;1315;109059;-41
2022/01/03 01:47:33;;;;;;;12.70;6.20;;;;;;;7.82;82.17;97835.85;419067;1315;97605;-40
2022/01/03 02:07:58;;;;;;;14.10;7.30;;;;;;;7.55;82.48;97844.53;418944;1314;109004;-41
2022/01/03 02:18:05;;;;;;;9.00;5.50;;;;;;;7.64;82.27;97837.11;420619;1304;97960;-41
2022/01/03 02:28:12;;;;;;;8.20;5.50;;;;;;;7.71;82.40;97814.94;418916;1315;109152;-41
2022/01/03 02:38:20;;;;;;;9.10;6.00;;;;;;;7.69;82.50;97809.84;419070;1315;97563;-39
2022/01/03 02:48:28;;;;;;;11.60;6.20;;;;;;;7.55;82.46;97797.39;420085;1313;111855;-42
2022/01/03 02:58:35;;;;;;;10.70;5.90;;;;;;;7.49;82.49;97798.55;420054;1315;108489;-40
2022/01/03 03:08:42;;;;;;;9.00;5.60;;;;;;;7.47;82.65;97790.48;420183;1318;97562;-40
2022/01/03 03:18:49;;;;;;;11.70;6.30;;;;;;;7.43;82.86;97782.23;419062;1314;107147;-41
2022/01/03 03:28:57;;;;;;;9.80;6.50;;;;;;;7.32;82.89;97756.02;420144;1314;97984;-40
2022/01/03 03:39:04;;;;;;;10.10;5.40;;;;;;;7.23;82.84;97742.52;419170;1314;111136;-41
2022/01/03 03:49:12;;;;;;;12.30;6.60;;;;;;;7.19;82.86;97737.64;419866;1313;108524;-41
2022/01/03 03:59:19;;;;;;;11.70;5.90;;;;;;;7.15;83.02;97747.18;419074;1314;97952;-41
2022/01/03 04:09:26;;;;;;;10.60;5.30;;;;;;;7.12;83.28;97725.83;419264;1314;109067;-41
2022/01/03 04:19:34;;;;;;;8.80;4.90;;;;;;;7.00;83.09;97721.08;419144;1314;97987;-42
2022/01/03 04:29:41;;;;;;;8.00;5.70;;;;;;;7.05;83.19;97725.77;419318;1314;111157;-41
2022/01/03 04:39:48;;;;;;;9.90;5.60;;;;;;;7.16;83.34;97716.38;419237;1315;108965;-41
2022/01/03 04:49:56;;;;;;;10.80;7.10;;;;;;;7.16;83.36;97698.63;419987;1313;97959;-42
2022/01/03 05:00:04;;;;;;;12.80;7.50;;;;;;;7.09;83.48;97684.99;419331;1314;109106;-41
2022/01/03 05:10:12;;;;;;;11.40;6.00;;;;;;;7.05;83.34;97678.29;419742;1315;97615;-41
2022/01/03 05:20:19;;;;;;;9.90;7.10;;;;;;;7.04;83.62;97668.12;419838;1313;111187;-42
2022/01/03 05:30:27;;;;;;;12.40;7.30;;;;;;;6.97;83.81;97665.76;419239;1314;108462;-40
2022/01/03 05:40:34;;;;;;;12.60;7.80;;;;;;;6.90;84.04;97635.77;419906;1315;97972;-40
2022/01/03 05:50:41;;;;;;;13.20;8.30;;;;;;;6.90;84.38;97624.77;419136;1314;108979;-40
2022/01/03 06:00:48;;;;;;;14.30;9.50;;;;;;;6.84;84.59;97622.97;419053;1314;97965;-41
2022/01/03 06:10:56;;;;;;;14.80;9.70;;;;;;;6.71;84.87;97614.91;419231;1314;110075;-40
2022/01/03 06:21:03;;;;;;;13.00;7.60;;;;;;;6.66;85.00;97641.69;419191;1313;108923;-41
2022/01/03 06:31:10;;;;;;;9.70;6.50;;;;;;;6.74;85.15;97631.42;419910;1313;97599;-41
2022/01/03 06:41:18;;;;;;;10.70;6.50;;;;;;;6.85;85.28;97619.88;418979;1313;587574;-41
2022/01/03 06:51:25;;;;;;;7.80;5.80;;;;;;;6.92;85.44;97625.02;419976;1314;108851;-40
2022/01/03 07:01:33;;;;;;;11.40;5.70;;;;;;;6.96;85.70;97621.13;419959;1313;97610;-40
2022/01/03 07:11:40;;;;;;;9.20;5.50;;;;;;;7.06;85.92;97631.15;419762;1314;107912;-40
2022/01/03 07:21:48;;;;;;;9.90;5.00;;;;;;;7.20;85.91;97636.38;419993;1314;97940;-40
2022/01/03 07:31:55;;;;;;;8.50;5.40;;;;;;;7.26;86.01;97641.30;420028;1314;111126;-39
2022/01/03 07:42:03;;;;;;;7.30;3.40;;;;;;;7.29;86.20;97652.24;419920;1314;107789;-40
2022/01/03 07:52:10;;;;;;;5.50;2.80;;;;;;;7.46;86.07;97661.67;419676;1313;97045;-41
2022/01/03 08:12:25;;;;;;;4.30;2.40;;;;;;;7.76;85.96;97667.57;419204;1314;97600;-40
2022/01/03 08:22:32;;;;;;;5.00;1.90;;;;;;;7.90;85.78;97670.84;419994;1313;111137;-40
2022/01/03 08:32:36;;;;;;;3.00;1.30;;;;;;;8.11;85.05;97674.15;419577;1313;109268;-41
2022/01/03 08:42:44;;;;;;;2.00;1.40;;;;;;;8.27;84.15;97687.59;419198;1313;97732;-43
2022/01/03 08:52:51;;;;;;;4.90;2.00;;;;;;;8.45;83.53;97695.23;420028;1313;109222;-40
2022/01/03 09:02:59;;;;;;;3.90;1.40;;;;;;;8.59;82.57;97696.89;419991;1313;97845;-40
2022/01/03 09:13:05;;;;;;;2.60;1.10;;;;;;;8.73;81.47;97695.27;419858;1313;111108;-40
2022/01/03 09:23:17;;;;;;;6.60;3.00;;;;;;;8.71;80.36;97692.75;419881;1313;108149;-40
2022/01/03 09:33:24;;;;;;;9.30;3.20;;;;;;;8.75;79.64;97687.30;419047;1314;98134;-42
2022/01/03 09:43:41;;;;;;;5.30;1.70;;;;;;;8.88;78.61;97678.53;419206;1313;108945;-40
2022/01/03 09:53:49;;;;;;;5.40;2.40;;;;;;;8.81;77.44;97680.48;419916;1312;100800;-41
2022/01/03 10:03:56;;;;;;;3.70;1.30;;;;;;;8.79;75.64;97669.45;419056;1313;111440;-40
2022/01/03 10:14:03;;;;;;;5.50;2.40;;;;;;;8.83;75.13;97665.80;419862;1313;108709;-41
2022/01/03 10:24:09;;;;;;;6.40;2.20;;;;;;;8.81;74.96;97651.39;419976;1313;97984;-41
2022/01/03 10:34:19;;;;;;;10.80;2.30;;;;;;;8.80;75.05;97659.81;419194;1314;109807;-41
2022/01/03 10:44:30;;;;;;;9.10;2.20;;;;;;;8.82;74.99;97649.09;419146;1313;108880;-40
2022/01/03 10:54:39;;;;;;;3.20;1.70;;;;;;;8.85;74.55;97648.85;419181;1313;98207;-42
2022/01/03 11:04:51;;;;;;;4.30;1.70;;;;;;;8.75;74.66;97656.09;419098;1314;108925;-41
2022/01/03 11:14:57;;;;;;;3.30;1.40;;;;;;;8.63;74.46;97660.70;419155;1313;97964;-42
2022/01/03 11:25:08;;;;;;;5.50;2.60;;;;;;;8.64;73.68;97657.09;419045;1313;112389;-41
2022/01/03 11:35:14;;;;;;;4.20;2.00;;;;;;;8.67;74.16;97652.96;419922;1315;108665;-42
2022/01/03 11:55:28;;;;;;;3.90;2.10;;;;;;;8.37;74.56;97680.81;420139;1313;108889;-41
2022/01/03 12:05:40;;;;;;;10.90;2.70;;;;;;;7.79;77.85;97690.94;420219;1314;97551;-41
2022/01/03 12:46:22;;;;;;;7.90;1.80;;;;;;;7.46;82.74;97736.13;418973;1313;107918;-41
2022/01/03 12:56:29;;;;;;;6.00;2.20;;;;;;;7.56;82.86;97748.04;418959;1314;97951;-41
2022/01/03 13:06:37;;;;;;;7.50;2.60;;;;;;;7.58;82.74;97752.63;418962;1314;110165;-41
2022/01/03 13:16:42;;;;;;;5.00;3.70;;;;;;;7.59;82.68;97767.38;418864;1313;107855;-40
2022/01/03 13:27:09;;;;;;;3.20;1.30;;;;;;;7.41;82.73;97786.92;420000;1313;98230;-41
2022/01/03 13:37:19;;;;;;;5.50;1.50;;;;;;;7.22;82.93;97799.18;418612;1315;109068;-41
2022/01/03 14:08:04;;;;;;;4.50;2.00;;;;;;;6.46;83.41;97822.13;418190;1316;108958;-41
2022/01/03 14:18:10;;;;;;;3.80;2.10;;;;;;;6.44;83.64;97824.59;418426;1309;96676;-41
2022/01/03 14:28:27;;;;;;;12.40;6.90;;;;;;;6.41;83.77;97841.91;418980;1314;107745;-43
2022/01/03 14:38:34;;;;;;;10.70;3.30;;;;;;;6.46;84.01;97839.41;414757;1314;5676287;-39
2022/01/03 14:48:53;;;;;;;15.70;8.50;;;;;;;6.38;84.29;97853.50;418268;1317;110347;-41
2022/01/03 15:09:17;;;;;;;48.50;26.50;;;;;;;6.40;84.46;97878.16;418181;1317;97012;-40
2022/01/03 15:19:44;;;;;;;9.00;4.60;;;;;;;6.49;84.65;97871.66;418682;1314;110536;-41
2022/01/03 15:29:52;;;;;;;20.50;9.00;;;;;;;6.59;84.68;97874.14;418781;1314;108982;-40
2022/01/03 15:39:59;;;;;;;43.80;25.70;;;;;;;6.63;84.83;97877.27;418781;1314;97889;-41
2022/01/03 15:50:06;;;;;;;30.00;18.20;;;;;;;6.55;84.77;97867.41;418133;1318;111133;-41
2022/01/03 16:00:15;;;;;;;20.10;9.60;;;;;;;6.48;84.85;97864.55;418981;1314;108866;-40
2022/01/03 16:10:24;;;;;;;14.40;9.20;;;;;;;6.54;84.91;97859.30;418154;1317;97913;-41
2022/01/03 16:20:32;;;;;;;48.40;19.30;;;;;;;6.61;84.88;97856.86;418161;1317;109286;-41
2022/01/03 16:30:41;;;;;;;43.50;15.60;;;;;;;6.61;85.04;97855.27;418846;1314;97562;-41
2022/01/03 16:40:51;;;;;;;24.60;10.40;;;;;;;6.58;85.12;97861.87;418805;1314;111255;-42
2022/01/03 16:51:03;;;;;;;19.50;9.00;;;;;;;6.60;85.03;97862.02;418192;1317;109048;-40
2022/01/03 17:01:10;;;;;;;20.50;7.30;;;;;;;6.66;84.97;97868.41;418749;1315;97870;-40
2022/01/03 17:11:18;;;;;;;23.00;9.90;;;;;;;6.74;84.95;97869.62;418897;1315;107888;-41
2022/01/03 17:21:26;;;;;;;18.90;8.30;;;;;;;6.72;84.93;97875.27;418293;1316;97954;-40
2022/01/03 17:31:33;;;;;;;23.50;9.40;;;;;;;6.56;84.84;97898.56;418201;1317;111574;-39
2022/01/03 17:51:47;;;;;;;29.30;11.20;;;;;;;6.25;84.92;97872.32;418781;1315;98005;-41
2022/01/03 18:01:54;;;;;;;41.10;18.20;;;;;;;6.24;85.06;97858.16;418252;1318;109797;-41
2022/01/03 18:12:01;;;;;;;27.20;12.00;;;;;;;6.31;85.24;97851.69;418825;1314;97998;-40
2022/01/03 18:22:10;;;;;;;27.40;10.10;;;;;;;6.18;85.20;97849.91;418162;1317;110106;-41
2022/01/03 18:32:16;;;;;;;20.70;8.60;;;;;;;6.00;85.30;97844.06;418775;1315;109066;-40
2022/01/03 18:42:26;;;;;;;18.80;7.30;;;;;;;5.99;85.21;97842.17;418339;1317;97984;-40
2022/01/03 18:52:36;;;;;;;18.70;9.00;;;;;;;6.05;85.13;97836.86;418399;1317;111135;-40
2022/01/03 19:02:43;;;;;;;14.20;7.50;;;;;;;6.13;85.11;97832.10;418171;1317;108891;-41
2022/01/03 19:12:50;;;;;;;20.80;7.80;;;;;;;6.17;85.16;97830.75;418869;1314;98020;-41
2022/01/03 19:22:57;;;;;;;33.40;16.90;;;;;;;6.10;85.01;97821.09;418345;1317;108895;-41
2022/01/03 19:33:21;;;;;;;13.40;6.80;;;;;;;6.08;84.79;97817.72;418940;1314;98223;-41
2022/01/03 19:43:27;;;;;;;12.00;5.70;;;;;;;6.09;84.62;97805.94;418982;1314;111114;-41
2022/01/03 19:53:35;;;;;;;16.80;7.50;;;;;;;6.03;84.55;97810.43;419029;1314;106326;-43
2022/01/03 20:03:42;;;;;;;22.00;8.50;;;;;;;5.93;84.60;97804.92;418272;1316;98054;-41
2022/01/03 20:13:53;;;;;;;34.30;14.30;;;;;;;5.76;84.54;97810.34;419124;1314;111398;-41
2022/01/03 20:24:00;;;;;;;35.10;14.50;;;;;;;5.74;84.55;97811.38;419112;1314;107881;-40
2022/01/03 20:34:07;;;;;;;22.40;9.90;;;;;;;5.82;84.49;97809.67;419013;1314;97983;-41
2022/01/03 20:44:17;;;;;;;23.10;9.30;;;;;;;5.89;84.49;97797.72;418867;1314;108306;-41
2022/01/03 20:54:25;;;;;;;33.80;13.10;;;;;;;5.84;84.67;97782.12;419005;1315;108792;-41
2022/01/03 21:04:31;;;;;;;34.50;14.60;;;;;;;5.69;84.64;97781.65;418271;1317;97993;-41
2022/01/03 21:14:38;;;;;;;21.70;8.70;;;;;;;5.59;84.61;97777.00;418140;1317;111143;-41
2022/01/03 21:24:45;;;;;;;29.00;12.30;;;;;;;5.59;84.71;97764.16;418323;1316;106042;-41
2022/01/03 21:34:52;;;;;;;30.60;12.10;;;;;;;5.60;84.76;97750.23;419024;1315;97560;-40
2022/01/03 21:44:58;;;;;;;90.50;31.30;;;;;;;5.50;84.67;97736.00;418286;1317;108804;-41
2022/01/03 21:55:06;;;;;;;82.50;33.40;;;;;;;5.18;84.53;97725.67;418987;1315;97951;-41
2022/01/03 22:05:13;;;;;;;90.10;38.50;;;;;;;4.94;84.46;97736.59;419063;1314;110165;-41
2022/01/03 22:15:20;;;;;;;33.80;15.90;;;;;;;4.91;84.59;97732.41;418870;1315;107958;-41
2022/01/03 22:25:27;;;;;;;23.60;10.60;;;;;;;5.04;84.68;97710.86;419039;1315;98140;-44
2022/01/03 22:45:42;;;;;;;35.00;16.10;;;;;;;4.94;84.77;97706.56;419058;1315;108833;-40
2022/01/03 22:55:50;;;;;;;30.70;14.90;;;;;;;4.86;84.93;97697.11;418211;1317;98019;-40
2022/01/03 23:05:57;;;;;;;26.90;12.00;;;;;;;4.82;84.69;97686.97;418892;1315;112990;-41
2022/01/03 23:16:04;;;;;;;20.10;10.60;;;;;;;4.82;84.86;97677.18;419155;1315;109319;-41
2022/01/03 23:26:11;;;;;;;14.40;6.60;;;;;;;4.90;85.05;97668.58;418981;1314;97979;-40
2022/01/03 23:36:18;;;;;;;21.00;9.10;;;;;;;5.01;85.10;97656.45;418873;1314;109087;-41
2022/01/03 23:46:26;;;;;;;27.20;8.70;;;;;;;5.06;85.21;97636.52;418297;1317;97993;-40
2022/01/03 23:56:34;;;;;;;18.30;5.90;;;;;;;5.14;85.07;97628.67;419000;1314;111205;-42
